Onweer radar Meer informatie blitzortung!


Regen radar Meer informatie rain snow radar


Bezoek onze andere websites:


Het weer levert geen direct gevaar op.    Er zijn geen waarschuwingen afgegeven.

Select another period ( hide this area )

Eenheden Periode Custom range Directly to
Metrisch Engels Beide
Dagelijkse Wekelijkse Maandelijkse Jaarlijkse
use both date-selectors for a custom range
previous Dag
With this date

WeatherUnderground graphs for this period ( click here )


Dagelijkse Samenvatting Woensdag 20 februari 2019
Tijd Temp. ( °C ) Dew pt. ( °C ) Wind ( km/h ) van Windvlaag ( km/h ) Luchtdruk ( hPa ) Humid.( % ) Rainrate ( cm )
Hoog12,7 6,1 12,9 ZW ( 319/949 ) 19,3 1022,9 91 -
Gemiddeld7,6 3,8 3,6 ZW #76/262 9,8 1021,1 78 -
Laag3,4 1,9 -   0,0 1019,5 59 -
Dagelijkse Tabular details for Woensdag 20 februari 2019
Tijd Temp. ( °C ) Dew pt. ( °C ) Wind ( km/h ) van Windvlaag ( km/h ) Luchtdruk ( hPa ) Humid.( % ) Rainrate ( cm )
00:02 5,9 3,7 8,0 Westen 9,7 1019,9 86 -
00:07 5,9 3,7 3,2 WZW 9,7 1019,9 86 -
00:12 5,9 3,7 3,2 WZW 9,7 1019,9 86 -
00:17 5,9 3,7 1,6 WZW 11,3 1019,9 86 -
00:22 5,9 3,7 1,6 WZW 11,3 1019,9 86 -
00:27 5,9 3,7 3,2 WZW 11,3 1019,9 86 -
00:32 5,9 3,7 3,2 ZZW 8,0 1019,9 86 -
00:37 5,9 3,7 8,0 WZW 8,0 1019,9 86 -
00:42 5,9 3,7 4,8 WZW 9,7 1019,9 86 -
00:47 5,9 3,7 3,2 WZW 9,7 1019,9 86 -
00:52 5,9 3,7 1,6 Zuiden 11,3 1019,9 86 -
00:57 5,9 3,7 8,0 WZW 11,3 1019,9 86 -
01:02 5,9 3,7 6,4 ZW 11,3 1019,9 86 -
01:07 6,0 3,8 6,4 ZW 11,3 1020,2 86 -
01:12 6,0 3,8 3,2 WZW 11,3 1020,2 86 -
01:17 6,1 3,9   Kalm 11,3 1020,2 86 -
01:22 6,1 3,9 1,6 WZW 11,3 1020,2 86 -
01:27 6,1 3,9 6,4 Westen 11,3 1020,2 86 -
01:32 6,1 3,9 6,4 Westen 9,7 1020,2 86 -
01:37 6,1 3,9 4,8 Westen 9,7 1019,9 86 -
01:42 6,1 3,9 1,6 ZW 9,7 1020,2 86 -
01:47 6,1 3,8 3,2 ZW 9,7 1020,2 85 -
01:52 6,1 3,8 3,2 ZW 9,7 1020,2 85 -
01:57 6,1 3,8   Kalm 9,7 1020,2 85 -
02:02 6,1 3,8 6,4 WZW 11,3 1020,2 85 -
02:07 6,1 3,8 1,6 ZW 11,3 1020,2 85 -
02:12 6,1 3,8 3,2 ZW 11,3 1020,2 85 -
02:17 6,1 3,8 3,2 WZW 8,0 1020,2 85 -
02:22 6,1 3,8 3,2 WZW 8,0 1020,2 85 -
02:27 6,0 3,7 3,2 Westen 9,7 1020,2 85 -
02:32 6,0 3,7 3,2 ZZW 9,7 1019,9 85 -
02:37 6,0 3,7 1,6 ZW 9,7 1019,9 85 -
02:42 6,0 3,7 3,2 WZW 9,7 1019,9 85 -
02:47 5,9 3,6 1,6 Zuiden 9,7 1019,9 85 -
02:52 5,9 3,6 3,2 ZZW 8,0 1019,9 85 -
02:57 5,9 3,4 1,6 ZZW 8,0 1019,9 84 -
03:02 5,9 3,6 1,6 WZW 8,0 1019,9 85 -
03:07 5,8 3,5 3,2 Zuiden 8,0 1019,9 85 -
03:12 5,7 3,4 3,2 Zuiden 8,0 1019,9 85 -
03:17 5,7 3,4   Kalm 9,7 1019,9 85 -
03:22 5,6 3,3 3,2 ZW 9,7 1019,9 85 -
03:27 5,5 3,2 3,2 ZW 8,0 1019,9 85 -
03:32 5,4 3,1 1,6 ZW 8,0 1019,9 85 -
03:37 5,3 3,1 3,2 WZW 6,4 1019,9 86 -
03:42 5,2 3,1   Kalm 6,4 1019,5 86 -
03:47 5,2 3,1 1,6 ZW 8,0 1019,5 86 -
03:52 5,1 3,0 6,4 ZZW 8,0 1019,5 86 -
03:57 5,0 2,9 1,6 ZW 8,0 1019,5 86 -
04:02 4,9 2,8 1,6 ZZW 6,4 1019,5 86 -
04:07 4,8 2,8 1,6 ZW 6,4 1019,5 87 -
04:12 4,7 2,7 1,6 ZZW 6,4 1019,5 87 -
04:17 4,7 2,7 1,6 WZW 8,0 1019,5 87 -
04:22 4,6 2,6 1,6 ZW 8,0 1019,5 87 -
04:27 4,6 2,8 4,8 ZW 8,0 1019,5 88 -
04:32 4,5 2,7 1,6 WZW 8,0 1019,5 88 -
04:37 4,4 2,6 3,2 ZW 8,0 1019,9 88 -
04:42 4,4 2,6 3,2 WZW 6,4 1019,5 88 -
04:47 4,4 2,6 6,4 ZZW 8,0 1019,5 88 -
04:52 4,3 2,5 1,6 WZW 8,0 1019,9 88 -
04:57 4,3 2,5 3,2 ZW 8,0 1019,5 88 -
05:02 4,2 2,5 1,6 WZW 8,0 1019,5 89 -
05:07 4,2 2,5 1,6 ZZW 6,4 1019,9 89 -
05:12 4,2 2,5 3,2 ZZW 6,4 1019,9 89 -
05:17 4,2 2,5   Kalm 6,4 1019,9 89 -
05:22 4,1 2,5 3,2 ZZW 6,4 1019,9 89 -
05:27 4,1 2,5 4,8 ZZW 6,4 1019,9 89 -
05:32 4,0 2,4   Kalm 6,4 1019,9 89 -
05:37 4,0 2,4   Kalm 6,4 1019,9 89 -
05:42 3,9 2,3   Kalm 6,4 1019,9 89 -
05:47 3,8 2,2   Kalm   1019,9 89 -
05:52 3,8 2,2   Kalm   1019,9 89 -
05:57 3,7 2,1   Kalm   1019,9 89 -
06:02 3,7 2,1   Kalm   1019,9 89 -
06:07 3,6 2,0   Kalm   1019,9 89 -
06:12 3,5 1,9   Kalm   1019,9 89 -
06:17 3,4 1,9   Kalm   1019,9 90 -
06:22 3,4 1,9   Kalm   1019,9 90 -
06:27 3,4 1,9   Kalm   1019,9 90 -
06:32 3,4 1,9   Kalm   1019,9 90 -
06:37 3,4 2,1   Kalm   1019,9 91 -
06:42 3,4 2,1   Kalm   1019,9 91 -
06:47 3,5 2,2   Kalm   1019,9 91 -
06:52 3,5 2,2   Kalm   1019,9 91 -
06:57 3,6 2,3   Kalm   1019,9 91 -
07:02 3,7 2,4   Kalm   1019,9 91 -
07:07 3,7 2,4   Kalm   1019,9 91 -
07:12 3,8 2,5   Kalm   1019,9 91 -
07:17 3,8 2,5   Kalm   1019,9 91 -
07:22 3,9 2,6   Kalm   1019,9 91 -
07:27 3,9 2,6   Kalm   1019,9 91 -
07:32 4,0 2,7   Kalm   1020,2 91 -
07:37 4,1 2,8 1,6 Zuiden   1020,2 91 -
07:42 4,1 2,8 1,6 Westen 4,8 1020,2 91 -
07:47 4,2 2,7   Kalm 4,8 1020,2 90 -
07:52 4,2 2,7 1,6 ZW 6,4 1020,2 90 -
07:57 4,2 2,7 1,6 ZZW 6,4 1020,2 90 -
08:02 4,3 2,8 4,8 ZW 6,4 1020,2 90 -
08:07 4,3 2,8 1,6 ZW 6,4 1020,2 90 -
08:12 4,4 2,9   Kalm 6,4 1020,2 90 -
08:17 4,4 2,9 1,6 Zuiden 6,4 1020,2 90 -
08:22 4,4 2,9 3,2 ZZW 8,0 1020,5 90 -
08:27 4,6 3,1 3,2 ZW 8,0 1020,5 90 -
08:32 4,6 3,1   Kalm 8,0 1020,5 90 -
08:37 4,7 3,2 3,2 ZW 8,0 1020,5 90 -
08:42 4,8 3,3 3,2 ZW 8,0 1020,5 90 -
08:47 4,8 3,3 3,2 ZW 8,0 1020,5 90 -
08:52 4,9 3,4 3,2 WZW 8,0 1020,5 90 -
08:57 5,0 3,5 1,6 ZZW 8,0 1020,9 90 -
09:02 5,1 3,6 6,4 ZW 8,0 1020,9 90 -
09:07 5,1 3,6 3,2 ZW 8,0 1020,9 90 -
09:12 5,2 3,7 1,6 ZW 9,7 1021,2 90 -
09:17 5,3 3,8 4,8 ZW 9,7 1021,2 90 -
09:22 5,4 3,7 4,8 ZW 9,7 1021,2 89 -
09:27 5,5 3,8 8,0 ZZW 9,7 1021,2 89 -
09:32 5,6 3,9 4,8 WZW 9,7 1021,2 89 -
09:37 5,7 4,0 8,0 WZW 9,7 1021,2 89 -
09:42 5,8 4,1 6,4 ZW 9,7 1021,2 89 -
09:47 5,9 4,2 8,0 WZW 9,7 1021,2 89 -
09:52 6,0 4,3 3,2 WZW 11,3 1021,2 89 -
09:57 6,1 4,4 1,6 ZW 11,3 1021,2 89 -
10:02 6,3 4,5 3,2 WZW 11,3 1021,2 88 -
10:07 6,4 4,6 11,3 ZW 11,3 1021,6 88 -
10:12 6,4 4,4 3,2 ZZW 11,3 1021,6 87 -
10:17 6,6 4,8 1,6 ZZW 11,3 1021,6 88 -
10:22 6,7 4,7 1,6 ZW 12,9 1021,6 87 -
10:27 6,9 4,9 1,6 ZZW 12,9 1021,6 87 -
10:32 7,1 4,9 3,2 OZO 11,3 1021,6 86 -
10:37 7,2 5,0 4,8 ZZW 11,3 1021,6 86 -
10:42 7,3 4,9 3,2 Westen 11,3 1021,6 85 -
10:47 7,5 5,1 3,2 Westen 11,3 1021,6 85 -
10:52 7,7 5,3 11,3 WZW 11,3 1021,6 85 -
10:57 7,9 5,4 3,2 ZZW 11,3 1021,6 84 -
11:02 8,1 5,6 6,4 WZW 11,3 1021,6 84 -
11:07 8,2 5,5   Kalm 11,3 1021,6 83 -
11:12 8,4 5,5 1,6 ZZW 14,5 1021,6 82 -
11:17 8,6 5,7 4,8 Zuiden 14,5 1021,6 82 -
11:22 8,8 5,9 8,0 WZW 12,9 1021,6 82 -
11:27 9,1 6,0 6,4 WZW 12,9 1021,6 81 -
11:32 9,4 6,1 3,2 ZZO 14,5 1021,6 80 -
11:37 9,6 6,0 8,0 ZW 14,5 1021,6 78 -
11:42 9,7 5,9 3,2 Westen 14,5 1021,9 77 -
11:47 9,9 6,1 3,2 ZZO 14,5 1021,9 77 -
11:52 10,1 6,1 6,4 ZW 16,1 1021,9 76 -
11:57 10,1 5,9 3,2 ZW 16,1 1021,6 75 -
12:02 10,3 5,9 3,2 ZW 19,3 1021,6 74 -
12:07 10,4 5,8 12,9 Westen 19,3 1021,6 73 -
12:12 10,4 5,4 3,2 Westen 17,7 1021,9 71 -
12:17 10,4 5,4 8,0 WZW 17,7 1021,6 71 -
12:22 10,4 5,4 9,7 WNW 19,3 1021,6 71 -
12:27 10,5 5,3 9,7 WZW 19,3 1021,6 70 -
12:32 10,6 5,4 6,4 ZW 19,3 1021,9 70 -
12:37 10,8 5,1 1,6 ZW 19,3 1021,6 68 -
12:42 10,8 5,1 8,0 WZW 19,3 1021,6 68 -
12:47 10,8 4,9 11,3 ZW 19,3 1021,6 67 -
12:52 10,8 4,9 3,2 ZW 17,7 1021,6 67 -
12:57 10,9 4,8 6,4 WNW 17,7 1021,9 66 -
13:02 11,0 5,1 9,7 ZW 16,1 1021,6 67 -
13:07 11,1 4,8 9,7 ZW 16,1 1021,6 65 -
13:12 11,2 4,9 6,4 WZW 16,1 1021,6 65 -
13:17 11,3 5,0 11,3 Westen 19,3 1021,6 65 -
13:22 11,4 4,8 6,4 ZW 19,3 1021,6 64 -
13:27 11,5 4,9 11,3 ZW 16,1 1021,6 64 -
13:32 11,6 5,2 8,0 ZW 16,1 1021,6 65 -
13:37 11,7 4,9 6,4 Westen 16,1 1021,6 63 -
13:42 11,8 4,5 6,4 Westen 16,1 1021,6 61 -
13:47 11,9 5,1 8,0 WZW 19,3 1021,6 63 -
13:52 12,2 5,1 6,4 ZW 19,3 1021,6 62 -
13:57 12,3 4,8 9,7 ZW 14,5 1021,6 60 -
14:02 12,5 4,9 8,0 Westen 14,5 1021,6 60 -
14:07 12,5 4,9 6,4 WZW 17,7 1021,6 60 -
14:12 12,4 4,6 12,9 Westen 17,7 1021,6 59 -
14:17 12,3 4,8 9,7 Westen 17,7 1021,6 60 -
14:22 12,3 4,8 6,4 WZW 17,7 1021,6 60 -
14:27 12,3 4,8 3,2 ZW 16,1 1021,6 60 -
14:32 12,3 4,8 6,4 ZW 16,1 1021,6 60 -
14:37 12,3 5,0 6,4 ZW 17,7 1021,6 61 -
14:42 12,4 5,1 6,4 WZW 17,7 1021,6 61 -
14:47 12,4 5,1 6,4 ZZW 17,7 1021,6 61 -
14:52 12,4 5,1 6,4 WZW 17,7 1021,6 61 -
14:57 12,4 4,9 8,0 WZW 14,5 1021,6 60 -
15:02 12,4 5,1 8,0 WZW 14,5 1021,6 61 -
15:07 12,4 5,1 8,0 WZW 14,5 1021,6 61 -
15:12 12,3 4,5 4,8 ZW 14,5 1021,6 59 -
15:17 12,2 4,7 9,7 Westen 16,1 1021,6 60 -
15:22 12,2 4,7 1,6 Westen 16,1 1021,6 60 -
15:27 12,1 4,3 4,8 NW 19,3 1021,6 59 -
15:32 12,2 4,4 9,7 Westen 19,3 1021,6 59 -
15:37 12,2 4,7 8,0 ZW 17,7 1021,6 60 -
15:42 12,3 4,8 4,8 WZW 17,7 1021,6 60 -
15:47 12,4 4,9 8,0 ZW 16,1 1021,6 60 -
15:52 12,5 4,9 3,2 WZW 16,1 1021,6 60 -
15:57 12,7 5,1 9,7 Westen 14,5 1021,6 60 -
16:02 12,6 5,0 3,2 WNW 14,5 1021,6 60 -
16:07 12,4 4,9 6,4 Westen 17,7 1021,6 60 -
16:12 12,2 4,7 1,6 Westen 17,7 1021,9 60 -
16:17 12,1 4,8 6,4 WZW 16,1 1021,9 61 -
16:22 12,0 4,9 8,0 Westen 16,1 1021,9 62 -
16:27 12,0 4,9 6,4 ZZO 16,1 1021,9 62 -
16:32 12,0 4,7 8,0 WZW 16,1 1021,6 61 -
16:37 12,0 4,7 8,0 Westen 16,1 1021,6 61 -
16:42 11,9 4,6 6,4 Westen 16,1 1021,6 61 -
16:47 11,9 4,8 6,4 WZW 16,1 1021,6 62 -
16:52 11,9 5,1 8,0 Zuiden 16,1 1021,6 63 -
16:57 11,8 5,0 9,7 WZW 16,1 1021,6 63 -
17:02 11,7 4,7 9,7 WNW 16,1 1021,6 62 -
17:07 11,7 4,7 6,4 ZW 12,9 1021,6 62 -
17:12 11,6 4,6   Kalm 12,9 1021,9 62 -
17:17 11,5 4,7 3,2 WZW 14,5 1021,6 63 -
17:22 11,4 4,6 6,4 ZW 14,5 1021,9 63 -
17:27 11,4 4,6 6,4 WZW 14,5 1021,9 63 -
17:32 11,3 4,5 3,2 ZZW 14,5 1021,9 63 -
17:37 11,2 4,4 8,0 WZW 11,3 1021,9 63 -
17:42 11,1 4,5 1,6 WZW 11,3 1021,9 64 -
17:47 11,0 4,5   Kalm 12,9 1021,9 64 -
17:52 10,9 4,6   Kalm 12,9 1021,9 65 -
17:57 10,8 4,5 3,2 ZW 8,0 1021,9 65 -
18:02 10,6 4,3 1,6 ZW 8,0 1021,9 65 -
18:07 10,4 4,3   Kalm 8,0 1021,9 66 -
18:12 10,3 4,2   Kalm 8,0 1021,9 66 -
18:17 10,2 4,1   Kalm 8,0 1021,9 66 -
18:22 10,0 3,9   Kalm 8,0 1021,9 66 -
18:27 9,8 4,0 1,6 ZZW 8,0 1021,9 67 -
18:32 9,7 3,9 3,2 ZW 6,4 1021,9 67 -
18:37 9,4 3,8 1,6 ZW 6,4 1021,9 68 -
18:42 9,3 3,7 1,6 ZZW 6,4 1022,2 68 -
18:47 9,2 3,6   Kalm 6,4 1022,2 68 -
18:52 9,0 3,4   Kalm 6,4 1022,2 68 -
18:57 8,8 3,2 1,6 WZW 6,4 1022,2 68 -
19:02 8,7 3,1 1,6 WZW 6,4 1022,2 68 -
19:07 8,5 2,9 3,2 ZW 6,4 1022,2 68 -
19:12 8,4 3,0   Kalm 6,4 1022,2 69 -
19:17 8,3 2,9   Kalm 6,4 1022,2 69 -
19:22 8,2 2,9   Kalm 6,4 1022,2 69 -
19:27 8,1 2,8 3,2 ZW 6,4 1022,2 69 -
19:32 7,9 2,8 1,6 ZW 3,2 1022,2 70 -
19:37 7,8 2,7 1,6 ZW 6,4 1022,6 70 -
19:42 7,8 2,7 3,2 ZW 6,4 1022,2 70 -
19:47 7,7 2,8 3,2 ZW 4,8 1022,6 71 -
19:52 7,6 2,7 1,6 ZW 4,8 1022,6 71 -
19:57 7,5 2,6   Kalm 3,2 1022,6 71 -
20:02 7,4 2,7   Kalm 4,8 1022,6 72 -
20:07 7,3 2,6 1,6 ZW 4,8 1022,6 72 -
20:12 7,2 2,5 3,2 ZW 4,8 1022,6 72 -
20:17 7,2 2,7 1,6 ZW 6,4 1022,6 73 -
20:22 7,1 2,6 3,2 ZW 6,4 1022,9 73 -
20:27 7,0 2,5 1,6 ZW 3,2 1022,9 73 -
20:32 6,9 2,4 3,2 ZZW 3,2 1022,9 73 -
20:37 6,8 2,5 1,6 ZZW 3,2 1022,9 74 -
20:42 6,8 2,5 1,6 ZZW 4,8 1022,9 74 -
20:47 6,7 2,4   Kalm 4,8 1022,9 74 -
20:52 6,7 2,6   Kalm 4,8 1022,9 75 -
20:57 6,6 2,5   Kalm 3,2 1022,9 75 -
21:02 6,5 2,4   Kalm 3,2 1022,9 75 -
21:07 6,4 2,3 1,6 ZZW   1022,9 75 -
21:12 6,4 2,5 3,2 ZW   1022,9 76 -
21:17 6,4 2,5 4,8 ZW 6,4 1022,9 76 -
21:22 6,4 2,5 3,2 ZW 6,4 1022,9 76 -
21:27 6,4 2,5 1,6 Zuiden 6,4 1022,9 76 -
21:32 6,3 2,4   Kalm 6,4 1022,9 76 -
21:37 6,3 2,6   Kalm 4,8 1022,9 77 -
21:42 6,3 2,6 1,6 ZZW 4,8 1022,9 77 -
21:47 6,3 2,7 3,2 ZZO 4,8 1022,9 78 -
Dagelijkse Samenvatting Woensdag 20 februari 2019
Tijd Temp. ( °C ) Dew pt. ( °C ) Wind ( km/h ) van Windvlaag ( km/h ) Luchtdruk ( hPa ) Humid.( % ) Rainrate ( cm )
Hoog12,7 6,1 12,9 ZW ( 319/949 ) 19,3 1022,9 91 -
Gemiddeld7,6 3,8 3,6 ZW #76/262 9,8 1021,1 78 -
Laag3,4 1,9 -   0,0 1019,5 59 -
Dagelijkse Tabular details for Woensdag 20 februari 2019
Tijd Temp. ( °C ) Dew pt. ( °C ) Wind ( km/h ) van Windvlaag ( km/h ) Luchtdruk ( hPa ) Humid.( % ) Rainrate ( cm )
00:02 5,9 3,7 8,0 Westen 9,7 1019,9 86 -
00:07 5,9 3,7 3,2 WZW 9,7 1019,9 86 -
00:12 5,9 3,7 3,2 WZW 9,7 1019,9 86 -
00:17 5,9 3,7 1,6 WZW 11,3 1019,9 86 -
00:22 5,9 3,7 1,6 WZW 11,3 1019,9 86 -
00:27 5,9 3,7 3,2 WZW 11,3 1019,9 86 -
00:32 5,9 3,7 3,2 ZZW 8,0 1019,9 86 -
00:37 5,9 3,7 8,0 WZW 8,0 1019,9 86 -
00:42 5,9 3,7 4,8 WZW 9,7 1019,9 86 -
00:47 5,9 3,7 3,2 WZW 9,7 1019,9 86 -
00:52 5,9 3,7 1,6 Zuiden 11,3 1019,9 86 -
00:57 5,9 3,7 8,0 WZW 11,3 1019,9 86 -
01:02 5,9 3,7 6,4 ZW 11,3 1019,9 86 -
01:07 6,0 3,8 6,4 ZW 11,3 1020,2 86 -
01:12 6,0 3,8 3,2 WZW 11,3 1020,2 86 -
01:17 6,1 3,9   Kalm 11,3 1020,2 86 -
01:22 6,1 3,9 1,6 WZW 11,3 1020,2 86 -
01:27 6,1 3,9 6,4 Westen 11,3 1020,2 86 -
01:32 6,1 3,9 6,4 Westen 9,7 1020,2 86 -
01:37 6,1 3,9 4,8 Westen 9,7 1019,9 86 -
01:42 6,1 3,9 1,6 ZW 9,7 1020,2 86 -
01:47 6,1 3,8 3,2 ZW 9,7 1020,2 85 -
01:52 6,1 3,8 3,2 ZW 9,7 1020,2 85 -
01:57 6,1 3,8   Kalm 9,7 1020,2 85 -
02:02 6,1 3,8 6,4 WZW 11,3 1020,2 85 -
02:07 6,1 3,8 1,6 ZW 11,3 1020,2 85 -
02:12 6,1 3,8 3,2 ZW 11,3 1020,2 85 -
02:17 6,1 3,8 3,2 WZW 8,0 1020,2 85 -
02:22 6,1 3,8 3,2 WZW 8,0 1020,2 85 -
02:27 6,0 3,7 3,2 Westen 9,7 1020,2 85 -
02:32 6,0 3,7 3,2 ZZW 9,7 1019,9 85 -
02:37 6,0 3,7 1,6 ZW 9,7 1019,9 85 -
02:42 6,0 3,7 3,2 WZW 9,7 1019,9 85 -
02:47 5,9 3,6 1,6 Zuiden 9,7 1019,9 85 -
02:52 5,9 3,6 3,2 ZZW 8,0 1019,9 85 -
02:57 5,9 3,4 1,6 ZZW 8,0 1019,9 84 -
03:02 5,9 3,6 1,6 WZW 8,0 1019,9 85 -
03:07 5,8 3,5 3,2 Zuiden 8,0 1019,9 85 -
03:12 5,7 3,4 3,2 Zuiden 8,0 1019,9 85 -
03:17 5,7 3,4   Kalm 9,7 1019,9 85 -
03:22 5,6 3,3 3,2 ZW 9,7 1019,9 85 -
03:27 5,5 3,2 3,2 ZW 8,0 1019,9 85 -
03:32 5,4 3,1 1,6 ZW 8,0 1019,9 85 -
03:37 5,3 3,1 3,2 WZW 6,4 1019,9 86 -
03:42 5,2 3,1   Kalm 6,4 1019,5 86 -
03:47 5,2 3,1 1,6 ZW 8,0 1019,5 86 -
03:52 5,1 3,0 6,4 ZZW 8,0 1019,5 86 -
03:57 5,0 2,9 1,6 ZW 8,0 1019,5 86 -
04:02 4,9 2,8 1,6 ZZW 6,4 1019,5 86 -
04:07 4,8 2,8 1,6 ZW 6,4 1019,5 87 -
04:12 4,7 2,7 1,6 ZZW 6,4 1019,5 87 -
04:17 4,7 2,7 1,6 WZW 8,0 1019,5 87 -
04:22 4,6 2,6 1,6 ZW 8,0 1019,5 87 -
04:27 4,6 2,8 4,8 ZW 8,0 1019,5 88 -
04:32 4,5 2,7 1,6 WZW 8,0 1019,5 88 -
04:37 4,4 2,6 3,2 ZW 8,0 1019,9 88 -
04:42 4,4 2,6 3,2 WZW 6,4 1019,5 88 -
04:47 4,4 2,6 6,4 ZZW 8,0 1019,5 88 -
04:52 4,3 2,5 1,6 WZW 8,0 1019,9 88 -
04:57 4,3 2,5 3,2 ZW 8,0 1019,5 88 -
05:02 4,2 2,5 1,6 WZW 8,0 1019,5 89 -
05:07 4,2 2,5 1,6 ZZW 6,4 1019,9 89 -
05:12 4,2 2,5 3,2 ZZW 6,4 1019,9 89 -
05:17 4,2 2,5   Kalm 6,4 1019,9 89 -
05:22 4,1 2,5 3,2 ZZW 6,4 1019,9 89 -
05:27 4,1 2,5 4,8 ZZW 6,4 1019,9 89 -
05:32 4,0 2,4   Kalm 6,4 1019,9 89 -
05:37 4,0 2,4   Kalm 6,4 1019,9 89 -
05:42 3,9 2,3   Kalm 6,4 1019,9 89 -
05:47 3,8 2,2   Kalm   1019,9 89 -
05:52 3,8 2,2   Kalm   1019,9 89 -
05:57 3,7 2,1   Kalm   1019,9 89 -
06:02 3,7 2,1   Kalm   1019,9 89 -
06:07 3,6 2,0   Kalm   1019,9 89 -
06:12 3,5 1,9   Kalm   1019,9 89 -
06:17 3,4 1,9   Kalm   1019,9 90 -
06:22 3,4 1,9   Kalm   1019,9 90 -
06:27 3,4 1,9   Kalm   1019,9 90 -
06:32 3,4 1,9   Kalm   1019,9 90 -
06:37 3,4 2,1   Kalm   1019,9 91 -
06:42 3,4 2,1   Kalm   1019,9 91 -
06:47 3,5 2,2   Kalm   1019,9 91 -
06:52 3,5 2,2   Kalm   1019,9 91 -
06:57 3,6 2,3   Kalm   1019,9 91 -
07:02 3,7 2,4   Kalm   1019,9 91 -
07:07 3,7 2,4   Kalm   1019,9 91 -
07:12 3,8 2,5   Kalm   1019,9 91 -
07:17 3,8 2,5   Kalm   1019,9 91 -
07:22 3,9 2,6   Kalm   1019,9 91 -
07:27 3,9 2,6   Kalm   1019,9 91 -
07:32 4,0 2,7   Kalm   1020,2 91 -
07:37 4,1 2,8 1,6 Zuiden   1020,2 91 -
07:42 4,1 2,8 1,6 Westen 4,8 1020,2 91 -
07:47 4,2 2,7   Kalm 4,8 1020,2 90 -
07:52 4,2 2,7 1,6 ZW 6,4 1020,2 90 -
07:57 4,2 2,7 1,6 ZZW 6,4 1020,2 90 -
08:02 4,3 2,8 4,8 ZW 6,4 1020,2 90 -
08:07 4,3 2,8 1,6 ZW 6,4 1020,2 90 -
08:12 4,4 2,9   Kalm 6,4 1020,2 90 -
08:17 4,4 2,9 1,6 Zuiden 6,4 1020,2 90 -
08:22 4,4 2,9 3,2 ZZW 8,0 1020,5 90 -
08:27 4,6 3,1 3,2 ZW 8,0 1020,5 90 -
08:32 4,6 3,1   Kalm 8,0 1020,5 90 -
08:37 4,7 3,2 3,2 ZW 8,0 1020,5 90 -
08:42 4,8 3,3 3,2 ZW 8,0 1020,5 90 -
08:47 4,8 3,3 3,2 ZW 8,0 1020,5 90 -
08:52 4,9 3,4 3,2 WZW 8,0 1020,5 90 -
08:57 5,0 3,5 1,6 ZZW 8,0 1020,9 90 -
09:02 5,1 3,6 6,4 ZW 8,0 1020,9 90 -
09:07 5,1 3,6 3,2 ZW 8,0 1020,9 90 -
09:12 5,2 3,7 1,6 ZW 9,7 1021,2 90 -
09:17 5,3 3,8 4,8 ZW 9,7 1021,2 90 -
09:22 5,4 3,7 4,8 ZW 9,7 1021,2 89 -
09:27 5,5 3,8 8,0 ZZW 9,7 1021,2 89 -
09:32 5,6 3,9 4,8 WZW 9,7 1021,2 89 -
09:37 5,7 4,0 8,0 WZW 9,7 1021,2 89 -
09:42 5,8 4,1 6,4 ZW 9,7 1021,2 89 -
09:47 5,9 4,2 8,0 WZW 9,7 1021,2 89 -
09:52 6,0 4,3 3,2 WZW 11,3 1021,2 89 -
09:57 6,1 4,4 1,6 ZW 11,3 1021,2 89 -
10:02 6,3 4,5 3,2 WZW 11,3 1021,2 88 -
10:07 6,4 4,6 11,3 ZW 11,3 1021,6 88 -
10:12 6,4 4,4 3,2 ZZW 11,3 1021,6 87 -
10:17 6,6 4,8 1,6 ZZW 11,3 1021,6 88 -
10:22 6,7 4,7 1,6 ZW 12,9 1021,6 87 -
10:27 6,9 4,9 1,6 ZZW 12,9 1021,6 87 -
10:32 7,1 4,9 3,2 OZO 11,3 1021,6 86 -
10:37 7,2 5,0 4,8 ZZW 11,3 1021,6 86 -
10:42 7,3 4,9 3,2 Westen 11,3 1021,6 85 -
10:47 7,5 5,1 3,2 Westen 11,3 1021,6 85 -
10:52 7,7 5,3 11,3 WZW 11,3 1021,6 85 -
10:57 7,9 5,4 3,2 ZZW 11,3 1021,6 84 -
11:02 8,1 5,6 6,4 WZW 11,3 1021,6 84 -
11:07 8,2 5,5   Kalm 11,3 1021,6 83 -
11:12 8,4 5,5 1,6 ZZW 14,5 1021,6 82 -
11:17 8,6 5,7 4,8 Zuiden 14,5 1021,6 82 -
11:22 8,8 5,9 8,0 WZW 12,9 1021,6 82 -
11:27 9,1 6,0 6,4 WZW 12,9 1021,6 81 -
11:32 9,4 6,1 3,2 ZZO 14,5 1021,6 80 -
11:37 9,6 6,0 8,0 ZW 14,5 1021,6 78 -
11:42 9,7 5,9 3,2 Westen 14,5 1021,9 77 -
11:47 9,9 6,1 3,2 ZZO 14,5 1021,9 77 -
11:52 10,1 6,1 6,4 ZW 16,1 1021,9 76 -
11:57 10,1 5,9 3,2 ZW 16,1 1021,6 75 -
12:02 10,3 5,9 3,2 ZW 19,3 1021,6 74 -
12:07 10,4 5,8 12,9 Westen 19,3 1021,6 73 -
12:12 10,4 5,4 3,2 Westen 17,7 1021,9 71 -
12:17 10,4 5,4 8,0 WZW 17,7 1021,6 71 -
12:22 10,4 5,4 9,7 WNW 19,3 1021,6 71 -
12:27 10,5 5,3 9,7 WZW 19,3 1021,6 70 -
12:32 10,6 5,4 6,4 ZW 19,3 1021,9 70 -
12:37 10,8 5,1 1,6 ZW 19,3 1021,6 68 -
12:42 10,8 5,1 8,0 WZW 19,3 1021,6 68 -
12:47 10,8 4,9 11,3 ZW 19,3 1021,6 67 -
12:52 10,8 4,9 3,2 ZW 17,7 1021,6 67 -
12:57 10,9 4,8 6,4 WNW 17,7 1021,9 66 -
13:02 11,0 5,1 9,7 ZW 16,1 1021,6 67 -
13:07 11,1 4,8 9,7 ZW 16,1 1021,6 65 -
13:12 11,2 4,9 6,4 WZW 16,1 1021,6 65 -
13:17 11,3 5,0 11,3 Westen 19,3 1021,6 65 -
13:22 11,4 4,8 6,4 ZW 19,3 1021,6 64 -
13:27 11,5 4,9 11,3 ZW 16,1 1021,6 64 -
13:32 11,6 5,2 8,0 ZW 16,1 1021,6 65 -
13:37 11,7 4,9 6,4 Westen 16,1 1021,6 63 -
13:42 11,8 4,5 6,4 Westen 16,1 1021,6 61 -
13:47 11,9 5,1 8,0 WZW 19,3 1021,6 63 -
13:52 12,2 5,1 6,4 ZW 19,3 1021,6 62 -
13:57 12,3 4,8 9,7 ZW 14,5 1021,6 60 -
14:02 12,5 4,9 8,0 Westen 14,5 1021,6 60 -
14:07 12,5 4,9 6,4 WZW 17,7 1021,6 60 -
14:12 12,4 4,6 12,9 Westen 17,7 1021,6 59 -
14:17 12,3 4,8 9,7 Westen 17,7 1021,6 60 -
14:22 12,3 4,8 6,4 WZW 17,7 1021,6 60 -
14:27 12,3 4,8 3,2 ZW 16,1 1021,6 60 -
14:32 12,3 4,8 6,4 ZW 16,1 1021,6 60 -
14:37 12,3 5,0 6,4 ZW 17,7 1021,6 61 -
14:42 12,4 5,1 6,4 WZW 17,7 1021,6 61 -
14:47 12,4 5,1 6,4 ZZW 17,7 1021,6 61 -
14:52 12,4 5,1 6,4 WZW 17,7 1021,6 61 -
14:57 12,4 4,9 8,0 WZW 14,5 1021,6 60 -
15:02 12,4 5,1 8,0 WZW 14,5 1021,6 61 -
15:07 12,4 5,1 8,0 WZW 14,5 1021,6 61 -
15:12 12,3 4,5 4,8 ZW 14,5 1021,6 59 -
15:17 12,2 4,7 9,7 Westen 16,1 1021,6 60 -
15:22 12,2 4,7 1,6 Westen 16,1 1021,6 60 -
15:27 12,1 4,3 4,8 NW 19,3 1021,6 59 -
15:32 12,2 4,4 9,7 Westen 19,3 1021,6 59 -
15:37 12,2 4,7 8,0 ZW 17,7 1021,6 60 -
15:42 12,3 4,8 4,8 WZW 17,7 1021,6 60 -
15:47 12,4 4,9 8,0 ZW 16,1 1021,6 60 -
15:52 12,5 4,9 3,2 WZW 16,1 1021,6 60 -
15:57 12,7 5,1 9,7 Westen 14,5 1021,6 60 -
16:02 12,6 5,0 3,2 WNW 14,5 1021,6 60 -
16:07 12,4 4,9 6,4 Westen 17,7 1021,6 60 -
16:12 12,2 4,7 1,6 Westen 17,7 1021,9 60 -
16:17 12,1 4,8 6,4 WZW 16,1 1021,9 61 -
16:22 12,0 4,9 8,0 Westen 16,1 1021,9 62 -
16:27 12,0 4,9 6,4 ZZO 16,1 1021,9 62 -
16:32 12,0 4,7 8,0 WZW 16,1 1021,6 61 -
16:37 12,0 4,7 8,0 Westen 16,1 1021,6 61 -
16:42 11,9 4,6 6,4 Westen 16,1 1021,6 61 -
16:47 11,9 4,8 6,4 WZW 16,1 1021,6 62 -
16:52 11,9 5,1 8,0 Zuiden 16,1 1021,6 63 -
16:57 11,8 5,0 9,7 WZW 16,1 1021,6 63 -
17:02 11,7 4,7 9,7 WNW 16,1 1021,6 62 -
17:07 11,7 4,7 6,4 ZW 12,9 1021,6 62 -
17:12 11,6 4,6   Kalm 12,9 1021,9 62 -
17:17 11,5 4,7 3,2 WZW 14,5 1021,6 63 -
17:22 11,4 4,6 6,4 ZW 14,5 1021,9 63 -
17:27 11,4 4,6 6,4 WZW 14,5 1021,9 63 -
17:32 11,3 4,5 3,2 ZZW 14,5 1021,9 63 -
17:37 11,2 4,4 8,0 WZW 11,3 1021,9 63 -
17:42 11,1 4,5 1,6 WZW 11,3 1021,9 64 -
17:47 11,0 4,5   Kalm 12,9 1021,9 64 -
17:52 10,9 4,6   Kalm 12,9 1021,9 65 -
17:57 10,8 4,5 3,2 ZW 8,0 1021,9 65 -
18:02 10,6 4,3 1,6 ZW 8,0 1021,9 65 -
18:07 10,4 4,3   Kalm 8,0 1021,9 66 -
18:12 10,3 4,2   Kalm 8,0 1021,9 66 -
18:17 10,2 4,1   Kalm 8,0 1021,9 66 -
18:22 10,0 3,9   Kalm 8,0 1021,9 66 -
18:27 9,8 4,0 1,6 ZZW 8,0 1021,9 67 -
18:32 9,7 3,9 3,2 ZW 6,4 1021,9 67 -
18:37 9,4 3,8 1,6 ZW 6,4 1021,9 68 -
18:42 9,3 3,7 1,6 ZZW 6,4 1022,2 68 -
18:47 9,2 3,6   Kalm 6,4 1022,2 68 -
18:52 9,0 3,4   Kalm 6,4 1022,2 68 -
18:57 8,8 3,2 1,6 WZW 6,4 1022,2 68 -
19:02 8,7 3,1 1,6 WZW 6,4 1022,2 68 -
19:07 8,5 2,9 3,2 ZW 6,4 1022,2 68 -
19:12 8,4 3,0   Kalm 6,4 1022,2 69 -
19:17 8,3 2,9   Kalm 6,4 1022,2 69 -
19:22 8,2 2,9   Kalm 6,4 1022,2 69 -
19:27 8,1 2,8 3,2 ZW 6,4 1022,2 69 -
19:32 7,9 2,8 1,6 ZW 3,2 1022,2 70 -
19:37 7,8 2,7 1,6 ZW 6,4 1022,6 70 -
19:42 7,8 2,7 3,2 ZW 6,4 1022,2 70 -
19:47 7,7 2,8 3,2 ZW 4,8 1022,6 71 -
19:52 7,6 2,7 1,6 ZW 4,8 1022,6 71 -
19:57 7,5 2,6   Kalm 3,2 1022,6 71 -
20:02 7,4 2,7   Kalm 4,8 1022,6 72 -
20:07 7,3 2,6 1,6 ZW 4,8 1022,6 72 -
20:12 7,2 2,5 3,2 ZW 4,8 1022,6 72 -
20:17 7,2 2,7 1,6 ZW 6,4 1022,6 73 -
20:22 7,1 2,6 3,2 ZW 6,4 1022,9 73 -
20:27 7,0 2,5 1,6 ZW 3,2 1022,9 73 -
20:32 6,9 2,4 3,2 ZZW 3,2 1022,9 73 -
20:37 6,8 2,5 1,6 ZZW 3,2 1022,9 74 -
20:42 6,8 2,5 1,6 ZZW 4,8 1022,9 74 -
20:47 6,7 2,4   Kalm 4,8 1022,9 74 -
20:52 6,7 2,6   Kalm 4,8 1022,9 75 -
20:57 6,6 2,5   Kalm 3,2 1022,9 75 -
21:02 6,5 2,4   Kalm 3,2 1022,9 75 -
21:07 6,4 2,3 1,6 ZZW   1022,9 75 -
21:12 6,4 2,5 3,2 ZW   1022,9 76 -
21:17 6,4 2,5 4,8 ZW 6,4 1022,9 76 -
21:22 6,4 2,5 3,2 ZW 6,4 1022,9 76 -
21:27 6,4 2,5 1,6 Zuiden 6,4 1022,9 76 -
21:32 6,3 2,4   Kalm 6,4 1022,9 76 -
21:37 6,3 2,6   Kalm 4,8 1022,9 77 -
21:42 6,3 2,6 1,6 ZZW 4,8 1022,9 77 -
21:47 6,3 2,7 3,2 ZZO 4,8 1022,9 78 -

Download your copy of this data-set  here

Our weather-data as stored at Weather Underground. Script ontwikkeld door Jim McMurry. Aangepast voor de template door Leuven-Template.eu

U vindt ons ook hier:

Weather Underground

Apparatuur in gebruik:

Weerstation
Davis VP2

Weerprogramma
Meteohub

Weercomputer
Raspberry Pi

Webleverancier
My provider

Davis VP2

Meteohub

Raspberry Pi

My provider